createdAt,value
2022-10-12T00:01:35.953Z,14.32
2022-10-12T00:04:02.506Z,15.65
2022-10-12T00:06:28.907Z,15.07
2022-10-12T00:08:55.405Z,14.65
2022-10-12T00:11:24.892Z,16.73
2022-10-12T00:13:52.374Z,15.38
2022-10-12T00:16:21.021Z,13.88
2022-10-12T00:18:55.379Z,15.30
2022-10-12T00:21:23.421Z,14.63
2022-10-12T00:23:50.485Z,16.33
2022-10-12T00:26:21.255Z,15.88
2022-10-12T00:28:48.498Z,14.77
2022-10-12T00:31:18.197Z,14.70
2022-10-12T00:33:45.308Z,14.43
2022-10-12T00:36:11.824Z,13.13
2022-10-12T00:38:38.245Z,12.88
2022-10-12T00:41:04.683Z,12.90
2022-10-12T00:43:33.759Z,12.68
2022-10-12T00:46:04.280Z,12.68
2022-10-12T00:48:31.310Z,12.40
2022-10-12T00:51:01.338Z,12.10
2022-10-12T00:53:32.694Z,13.02
2022-10-12T00:56:02.749Z,12.52
2022-10-12T00:58:29.726Z,11.82
2022-10-12T01:00:56.262Z,11.80
2022-10-12T01:03:23.231Z,13.10
2022-10-12T01:05:49.723Z,13.15
2022-10-12T01:08:16.166Z,11.90
2022-10-12T01:10:42.614Z,12.52
2022-10-12T01:13:09.154Z,12.67
2022-10-12T01:15:45.432Z,13.02
2022-10-12T01:19:06.986Z,13.13
2022-10-12T01:21:40.818Z,14.02
2022-10-12T01:24:34.498Z,13.27
2022-10-12T01:27:29.655Z,13.67
2022-10-12T01:30:04.799Z,13.02
2022-10-12T01:32:36.727Z,13.18
2022-10-12T01:35:03.052Z,12.60
2022-10-12T01:37:35.315Z,12.77
2022-10-12T01:40:07.837Z,13.43
2022-10-12T01:42:39.436Z,13.10
2022-10-12T01:45:15.202Z,12.05
2022-10-12T01:47:44.039Z,10.95
2022-10-12T01:50:14.231Z,12.45
2022-10-12T01:53:11.915Z,11.83
2022-10-12T01:56:01.114Z,12.32
2022-10-12T01:58:44.454Z,12.40
2022-10-12T02:01:24.939Z,12.52
2022-10-12T02:04:00.177Z,13.95
2022-10-12T02:06:35.010Z,13.60
2022-10-12T02:09:12.878Z,12.43
2022-10-12T02:11:42.964Z,13.27
2022-10-12T02:14:18.095Z,13.20
2022-10-12T02:16:55.641Z,13.25
2022-10-12T02:19:27.112Z,13.33
2022-10-12T02:22:00.560Z,11.52
2022-10-12T02:24:29.219Z,12.45
2022-10-12T02:26:56.670Z,13.57
2022-10-12T02:29:29.593Z,13.65
2022-10-12T02:32:11.205Z,13.63
2022-10-12T02:34:46.398Z,13.35
2022-10-12T02:37:31.191Z,12.70
2022-10-12T02:40:06.673Z,14.07
2022-10-12T02:43:08.369Z,14.30
2022-10-12T02:45:25.646Z,14.70
2022-10-12T02:47:55.457Z,14.77
2022-10-12T02:50:23.852Z,14.30
2022-10-12T02:52:51.564Z,14.20
2022-10-12T02:55:17.915Z,13.00
2022-10-12T02:57:44.321Z,13.13
2022-10-12T03:00:11.590Z,12.00
2022-10-12T03:02:37.943Z,13.13
2022-10-12T03:05:04.703Z,12.75
2022-10-12T03:07:31.076Z,12.68
2022-10-12T03:09:57.494Z,12.60
2022-10-12T03:12:23.967Z,13.50
2022-10-12T03:14:50.369Z,13.00
2022-10-12T03:17:16.864Z,13.50
2022-10-12T03:19:43.247Z,11.90
2022-10-12T03:22:09.603Z,12.27
2022-10-12T03:24:35.955Z,13.13
2022-10-12T03:27:02.354Z,13.15
2022-10-12T03:29:28.730Z,13.77
2022-10-12T03:31:55.100Z,13.30
2022-10-12T03:34:21.467Z,14.50
2022-10-12T03:36:47.921Z,14.20
2022-10-12T03:39:14.395Z,13.52
2022-10-12T03:41:40.755Z,13.55
2022-10-12T03:44:07.108Z,14.55
2022-10-12T03:46:33.478Z,13.90
2022-10-12T03:48:59.867Z,13.18
2022-10-12T03:51:26.224Z,13.75
2022-10-12T03:53:52.590Z,13.48
2022-10-12T03:56:18.996Z,13.65
2022-10-12T03:58:45.373Z,13.63
2022-10-12T04:01:11.794Z,13.63
2022-10-12T04:03:38.154Z,13.82
2022-10-12T04:06:04.840Z,14.70
2022-10-12T04:08:31.190Z,14.70
2022-10-12T04:10:57.591Z,15.10
2022-10-12T04:13:24.099Z,14.10
2022-10-12T04:15:50.532Z,13.68
2022-10-12T04:18:16.935Z,12.70
2022-10-12T04:20:43.319Z,12.73
2022-10-12T04:23:09.707Z,13.57
2022-10-12T04:25:36.075Z,15.63
2022-10-12T04:28:02.520Z,16.17
2022-10-12T04:30:29.192Z,14.48
2022-10-12T04:32:55.637Z,13.73
2022-10-12T04:35:22.007Z,14.43
2022-10-12T04:37:48.389Z,14.75
2022-10-12T04:40:14.829Z,15.38
2022-10-12T04:42:41.190Z,15.35
2022-10-12T04:45:08.281Z,15.95
2022-10-12T04:47:35.207Z,15.73
2022-10-12T04:50:01.688Z,14.02
2022-10-12T04:52:28.050Z,14.90
2022-10-12T04:54:54.400Z,14.77
2022-10-12T04:57:20.780Z,14.35
2022-10-12T04:59:47.198Z,16.07
2022-10-12T05:02:13.537Z,15.10
2022-10-12T05:04:39.907Z,14.43
2022-10-12T05:07:06.322Z,14.27
2022-10-12T05:09:32.730Z,14.73
2022-10-12T05:11:59.170Z,13.67
2022-10-12T05:14:25.571Z,13.23
2022-10-12T05:16:51.982Z,13.18
2022-10-12T05:19:18.350Z,13.93
2022-10-12T05:21:44.793Z,15.05
2022-10-12T05:24:11.348Z,14.57
2022-10-12T05:26:37.739Z,16.13
2022-10-12T05:29:04.448Z,16.15
2022-10-12T05:31:30.950Z,16.27
2022-10-12T05:33:57.316Z,16.55
2022-10-12T05:36:23.797Z,17.17
2022-10-12T05:38:50.219Z,16.73
2022-10-12T05:41:16.573Z,17.00
2022-10-12T05:43:42.963Z,18.77
2022-10-12T05:46:14.184Z,19.48
2022-10-12T05:48:40.958Z,20.90
2022-10-12T05:51:07.347Z,20.27
2022-10-12T05:53:33.698Z,20.17
2022-10-12T05:56:01.785Z,17.10
2022-10-12T05:58:30.071Z,16.92
2022-10-12T06:01:13.584Z,17.43
2022-10-12T06:03:40.660Z,16.77
2022-10-12T06:06:07.309Z,17.52
2022-10-12T06:08:34.522Z,19.38
2022-10-12T06:11:01.003Z,18.80
2022-10-12T06:13:27.412Z,17.90
2022-10-12T06:15:53.941Z,19.48
2022-10-12T06:18:20.344Z,19.50
2022-10-12T06:20:56.490Z,19.48
2022-10-12T06:23:35.475Z,21.02
2022-10-12T06:26:01.989Z,17.17
2022-10-12T06:28:28.475Z,18.00
2022-10-12T06:30:57.070Z,19.45
2022-10-12T06:33:24.239Z,20.10
2022-10-12T06:35:50.891Z,18.65
2022-10-12T06:38:17.505Z,17.43
2022-10-12T06:40:44.118Z,19.70
2022-10-12T06:43:10.536Z,19.33
2022-10-12T06:45:37.545Z,18.80
2022-10-12T06:48:05.634Z,19.20
2022-10-12T06:50:32.051Z,18.73
2022-10-12T06:52:58.455Z,18.77
2022-10-12T06:55:25.285Z,18.90
2022-10-12T06:57:51.669Z,19.00
2022-10-12T07:00:18.164Z,19.95
2022-10-12T07:02:44.544Z,22.47
2022-10-12T07:05:10.918Z,23.33
2022-10-12T07:07:37.401Z,20.88
2022-10-12T07:10:04.381Z,18.75
2022-10-12T07:12:30.787Z,17.95
2022-10-12T07:14:57.197Z,18.03
2022-10-12T07:17:23.711Z,18.98
2022-10-12T07:19:50.144Z,18.45
2022-10-12T07:22:16.503Z,18.67
2022-10-12T07:24:42.898Z,20.13
2022-10-12T07:27:10.458Z,20.50
2022-10-12T07:29:38.471Z,20.58
2022-10-12T07:32:05.831Z,20.08
2022-10-12T07:34:32.331Z,19.52
2022-10-12T07:36:59.936Z,21.17
2022-10-12T07:39:26.797Z,20.57
2022-10-12T07:41:54.118Z,20.98
2022-10-12T07:44:21.057Z,22.45
2022-10-12T07:46:47.590Z,21.00
2022-10-12T07:49:15.070Z,20.13
2022-10-12T07:51:42.316Z,19.70
2022-10-12T07:54:09.629Z,20.35
2022-10-12T07:56:36.224Z,17.30
2022-10-12T07:59:02.662Z,18.38
2022-10-12T08:01:30.708Z,17.00
2022-10-12T08:04:01.546Z,18.20
2022-10-12T08:06:33.298Z,16.67
2022-10-12T08:09:02.129Z,17.20
2022-10-12T08:11:29.109Z,15.75
2022-10-12T08:13:55.539Z,16.90
2022-10-12T08:16:22.575Z,16.83
2022-10-12T08:18:49.230Z,15.88
2022-10-12T08:21:17.577Z,17.50
2022-10-12T08:23:44.640Z,17.90
2022-10-12T08:26:12.093Z,17.45
2022-10-12T08:28:38.955Z,16.60
2022-10-12T08:31:11.452Z,16.40
2022-10-12T08:33:37.929Z,15.40
2022-10-12T08:36:05.903Z,15.35
2022-10-12T08:38:33.262Z,15.48
2022-10-12T08:41:38.310Z,14.27
2022-10-12T08:44:23.582Z,13.63
2022-10-12T08:46:55.674Z,13.10
2022-10-12T08:49:26.301Z,14.68
2022-10-12T08:51:56.443Z,12.95
2022-10-12T08:54:25.122Z,12.23
2022-10-12T08:56:55.933Z,12.70
2022-10-12T08:59:22.717Z,11.73
2022-10-12T09:01:52.289Z,11.85
2022-10-12T09:04:21.847Z,9.80
2022-10-12T09:07:06.200Z,10.27
2022-10-12T09:09:50.957Z,9.60
2022-10-12T09:12:20.183Z,9.27
2022-10-12T09:14:47.906Z,9.27
2022-10-12T09:17:39.160Z,9.65
2022-10-12T09:20:14.104Z,9.23
2022-10-12T09:22:44.793Z,9.48
2022-10-12T09:25:14.020Z,9.15
2022-10-12T09:27:45.173Z,9.43
2022-10-12T09:30:16.685Z,10.48
2022-10-12T09:32:55.071Z,9.27
2022-10-12T09:35:21.691Z,9.38
2022-10-12T09:37:52.165Z,10.45
2022-10-12T09:40:26.331Z,9.20
2022-10-12T09:42:54.418Z,9.02
2022-10-12T09:45:22.014Z,9.87
2022-10-12T09:48:11.670Z,8.50
2022-10-12T09:51:00.542Z,9.02
2022-10-12T09:53:49.142Z,8.30
2022-10-12T09:56:28.605Z,8.77
2022-10-12T09:59:01.440Z,8.80
2022-10-12T10:01:30.527Z,8.38
2022-10-12T10:04:22.684Z,8.65
2022-10-12T10:06:49.714Z,8.38
2022-10-12T10:09:36.506Z,8.15
2022-10-12T10:12:13.665Z,8.60
2022-10-12T10:14:43.707Z,9.10
2022-10-12T10:17:15.324Z,10.02
2022-10-12T10:19:49.230Z,8.88
2022-10-12T10:22:16.141Z,9.27
2022-10-12T10:24:42.618Z,10.17
2022-10-12T10:27:31.808Z,9.43
2022-10-12T10:30:29.666Z,9.35
2022-10-12T10:33:28.026Z,9.60
2022-10-12T10:35:59.318Z,9.30
2022-10-12T10:38:26.213Z,8.20
2022-10-12T10:40:55.859Z,8.90
2022-10-12T10:43:28.710Z,9.18
2022-10-12T10:45:58.989Z,8.90
2022-10-12T10:48:33.748Z,9.75
2022-10-12T10:51:04.969Z,9.23
2022-10-12T10:53:46.921Z,9.93
2022-10-12T10:56:32.015Z,9.32
2022-10-12T10:59:16.511Z,8.32
2022-10-12T11:01:56.521Z,8.98
2022-10-12T11:04:35.052Z,9.10
2022-10-12T11:07:10.362Z,8.27
2022-10-12T11:09:42.988Z,8.50
2022-10-12T11:12:15.462Z,9.13
2022-10-12T11:14:47.980Z,8.68
2022-10-12T11:17:21.959Z,8.17
2022-10-12T11:20:18.824Z,8.77
2022-10-12T11:22:57.778Z,8.27
2022-10-12T11:25:56.020Z,7.50
2022-10-12T11:28:26.363Z,7.65
2022-10-12T11:30:52.823Z,7.60
2022-10-12T11:33:26.292Z,7.68
2022-10-12T11:35:54.457Z,7.43
2022-10-12T11:38:40.371Z,7.43
2022-10-12T11:41:36.631Z,7.15
2022-10-12T11:44:12.247Z,6.90
2022-10-12T11:46:57.971Z,6.22
2022-10-12T11:49:31.705Z,6.97
2022-10-12T11:52:02.689Z,6.18
2022-10-12T11:54:43.467Z,7.65
2022-10-12T11:57:26.475Z,6.10
2022-10-12T12:00:03.160Z,6.20
2022-10-12T12:02:41.439Z,6.07
2022-10-12T12:05:16.696Z,5.80
2022-10-12T12:07:49.087Z,6.15
2022-10-12T12:10:27.515Z,5.97
2022-10-12T12:13:12.117Z,5.70
2022-10-12T12:15:39.990Z,5.47
2022-10-12T12:18:18.020Z,5.57
2022-10-12T12:20:44.371Z,5.43
2022-10-12T12:23:28.599Z,5.27
2022-10-12T12:26:15.658Z,5.25
2022-10-12T12:29:08.773Z,4.78
2022-10-12T12:31:35.851Z,4.90
2022-10-12T12:34:07.153Z,5.20
2022-10-12T12:36:36.821Z,4.03
2022-10-12T12:39:06.707Z,3.97
2022-10-12T12:41:57.675Z,5.15
2022-10-12T12:44:45.880Z,3.80
2022-10-12T12:47:43.517Z,4.03
2022-10-12T12:50:02.232Z,3.90
2022-10-12T12:52:38.425Z,3.80
2022-10-12T12:55:13.799Z,3.83
2022-10-12T12:58:09.492Z,4.10
2022-10-12T13:01:07.847Z,4.30
2022-10-12T13:03:37.034Z,4.30
2022-10-12T13:06:15.695Z,4.53
2022-10-12T13:09:11.422Z,4.50
2022-10-12T13:12:06.995Z,4.55
2022-10-12T13:14:55.030Z,4.85
2022-10-12T13:17:54.157Z,4.50
2022-10-12T13:20:29.254Z,4.55
2022-10-12T13:22:57.024Z,6.20
2022-10-12T13:25:36.153Z,4.45
2022-10-12T13:28:06.218Z,4.70
2022-10-12T13:30:52.828Z,4.47
2022-10-12T13:33:32.083Z,4.45
2022-10-12T13:36:21.887Z,4.65
2022-10-12T13:38:53.872Z,4.72
2022-10-12T13:41:20.830Z,4.82
2022-10-12T13:44:04.471Z,4.90
2022-10-12T13:46:49.021Z,4.50
2022-10-12T13:49:20.675Z,4.80
2022-10-12T13:51:51.321Z,4.70
2022-10-12T13:54:20.163Z,5.15
2022-10-12T13:56:49.070Z,4.90
2022-10-12T13:59:19.757Z,4.88
2022-10-12T14:02:01.036Z,4.28
2022-10-12T14:04:33.054Z,4.10
2022-10-12T14:07:07.193Z,4.22
2022-10-12T14:09:45.356Z,5.57
2022-10-12T14:12:12.750Z,4.65
2022-10-12T14:14:42.781Z,4.68
2022-10-12T14:17:15.588Z,6.45
2022-10-12T14:19:41.947Z,5.55
2022-10-12T14:22:09.330Z,6.13
2022-10-12T14:24:36.502Z,11.15
2022-10-12T14:27:05.082Z,4.55
2022-10-12T14:29:43.321Z,6.35
2022-10-12T14:32:12.771Z,5.47
2022-10-12T14:35:03.170Z,7.80
2022-10-12T14:37:30.403Z,5.25
2022-10-12T14:39:57.164Z,5.25
2022-10-12T14:42:36.087Z,3.78
2022-10-12T14:45:06.291Z,6.28
2022-10-12T14:47:37.531Z,7.17
2022-10-12T14:50:08.485Z,5.43
2022-10-12T14:52:39.445Z,4.57
2022-10-12T14:55:06.992Z,5.00
2022-10-12T14:57:33.447Z,5.07
2022-10-12T14:59:59.806Z,9.00
2022-10-12T15:02:29.935Z,4.18
2022-10-12T15:04:56.899Z,4.50
2022-10-12T15:07:24.552Z,3.95
2022-10-12T15:09:52.033Z,3.70
2022-10-12T15:12:21.725Z,3.77
2022-10-12T15:14:49.091Z,3.63
2022-10-12T15:17:17.468Z,3.90
2022-10-12T15:19:45.864Z,3.60
2022-10-12T15:22:24.232Z,3.72
2022-10-12T15:24:51.890Z,3.60
2022-10-12T15:27:18.394Z,3.92
2022-10-12T15:29:44.870Z,4.00
2022-10-12T15:32:13.397Z,3.83
2022-10-12T15:34:39.961Z,3.97
2022-10-12T15:37:09.056Z,3.90
2022-10-12T15:39:35.840Z,4.00
2022-10-12T15:42:02.305Z,4.20
2022-10-12T15:44:28.821Z,4.22
2022-10-12T15:46:55.180Z,4.13
2022-10-12T15:49:22.201Z,4.87
2022-10-12T15:51:51.630Z,4.15
2022-10-12T15:54:18.475Z,4.60
2022-10-12T15:56:45.067Z,4.43
2022-10-12T15:59:11.465Z,4.60
2022-10-12T16:01:38.796Z,4.57
2022-10-12T16:04:07.023Z,4.65
2022-10-12T16:06:33.746Z,4.30
2022-10-12T16:09:00.244Z,4.65
2022-10-12T16:11:26.719Z,4.53
2022-10-12T16:13:56.647Z,5.00
2022-10-12T16:16:23.774Z,4.60
2022-10-12T16:18:50.445Z,4.90
2022-10-12T16:21:16.865Z,4.70
2022-10-12T16:23:43.274Z,4.50
2022-10-12T16:26:14.242Z,4.63
2022-10-12T16:28:41.312Z,4.38
2022-10-12T16:31:13.098Z,4.60
2022-10-12T16:33:39.497Z,4.57
2022-10-12T16:36:10.796Z,5.30
2022-10-12T16:38:37.202Z,4.63
2022-10-12T16:41:08.700Z,4.40
2022-10-12T16:43:35.116Z,4.82
2022-10-12T16:46:01.494Z,4.93
2022-10-12T16:48:27.900Z,5.85
2022-10-12T16:50:54.331Z,5.97
2022-10-12T16:53:20.725Z,6.20
2022-10-12T16:55:47.138Z,6.43
2022-10-12T16:58:13.552Z,6.55
2022-10-12T17:00:40.216Z,6.15
2022-10-12T17:03:06.706Z,7.17
2022-10-12T17:05:33.147Z,6.90
2022-10-12T17:07:59.627Z,6.88
2022-10-12T17:10:26.072Z,7.10
2022-10-12T17:12:52.809Z,7.20
2022-10-12T17:15:19.393Z,6.83
2022-10-12T17:17:45.792Z,6.90
2022-10-12T17:20:12.156Z,7.13
2022-10-12T17:22:38.525Z,8.80
2022-10-12T17:25:05.328Z,8.80
2022-10-12T17:27:32.415Z,8.97
2022-10-12T17:29:59.053Z,9.00
2022-10-12T17:32:25.434Z,8.55
2022-10-12T17:34:51.834Z,8.98
2022-10-12T17:37:18.330Z,8.43
2022-10-12T17:39:46.190Z,8.10
2022-10-12T17:42:13.464Z,7.57
2022-10-12T17:44:40.144Z,7.47
2022-10-12T17:47:06.741Z,7.85
2022-10-12T17:49:33.387Z,8.65
2022-10-12T17:51:59.808Z,9.10
2022-10-12T17:54:26.220Z,8.90
2022-10-12T17:56:56.118Z,8.68
2022-10-12T17:59:22.916Z,8.90
2022-10-12T18:01:50.714Z,9.15
2022-10-12T18:04:17.566Z,8.43
2022-10-12T18:06:43.982Z,8.43
2022-10-12T18:09:10.388Z,8.90
2022-10-12T18:11:37.111Z,7.90
2022-10-12T18:14:03.716Z,8.27
2022-10-12T18:16:32.309Z,8.87
2022-10-12T18:19:00.329Z,9.32
2022-10-12T18:21:28.761Z,8.90
2022-10-12T18:23:55.821Z,9.73
2022-10-12T18:26:22.660Z,9.90
2022-10-12T18:28:50.895Z,9.80
2022-10-12T18:31:19.539Z,9.35
2022-10-12T18:33:46.113Z,9.00
2022-10-12T18:36:13.706Z,8.95
2022-10-12T18:38:40.652Z,9.30
2022-10-12T18:41:10.036Z,8.77
2022-10-12T18:43:37.296Z,8.15
2022-10-12T18:46:08.240Z,7.78
2022-10-12T18:48:35.072Z,8.50
2022-10-12T18:51:14.058Z,7.72
2022-10-12T18:53:40.476Z,7.53
2022-10-12T18:56:07.208Z,7.93
2022-10-12T18:58:33.620Z,7.30
2022-10-12T19:01:00.211Z,7.82
2022-10-12T19:03:28.436Z,7.80
2022-10-12T19:06:04.071Z,7.80
2022-10-12T19:08:30.468Z,7.25
2022-10-12T19:10:56.890Z,7.70
2022-10-12T19:13:23.300Z,8.07
2022-10-12T19:15:49.740Z,8.48
2022-10-12T19:18:16.156Z,9.63
2022-10-12T19:20:42.560Z,8.73
2022-10-12T19:23:08.974Z,7.60
2022-10-12T19:25:38.255Z,8.75
2022-10-12T19:28:04.754Z,10.32
2022-10-12T19:30:31.145Z,9.37
2022-10-12T19:32:57.521Z,9.35
2022-10-12T19:35:23.945Z,9.13
2022-10-12T19:37:50.634Z,8.25
2022-10-12T19:40:17.029Z,8.18
2022-10-12T19:42:43.441Z,8.10
2022-10-12T19:45:10.379Z,7.43
2022-10-12T19:47:36.777Z,7.80
2022-10-12T19:50:03.162Z,7.50
2022-10-12T19:52:29.611Z,7.72
2022-10-12T19:54:55.987Z,7.60
2022-10-12T19:57:22.427Z,7.70
2022-10-12T19:59:48.835Z,7.80
2022-10-12T20:02:15.434Z,8.07
2022-10-12T20:04:43.016Z,9.05
2022-10-12T20:07:09.441Z,9.43
2022-10-12T20:09:35.927Z,9.48
2022-10-12T20:12:02.324Z,9.07
2022-10-12T20:14:28.714Z,9.30
2022-10-12T20:16:55.405Z,9.63
2022-10-12T20:19:21.787Z,9.60
2022-10-12T20:21:48.183Z,9.23
2022-10-12T20:24:14.559Z,9.68
2022-10-12T20:26:40.967Z,9.52
2022-10-12T20:29:07.450Z,9.80
2022-10-12T20:31:33.857Z,9.80
2022-10-12T20:34:00.248Z,11.35
2022-10-12T20:36:29.785Z,10.90
2022-10-12T20:38:59.791Z,11.07
2022-10-12T20:41:26.705Z,10.57
2022-10-12T20:43:57.933Z,10.73
2022-10-12T20:46:25.363Z,10.93
2022-10-12T20:48:58.351Z,11.25
2022-10-12T20:51:28.495Z,11.15
2022-10-12T20:53:55.984Z,10.55
2022-10-12T20:56:22.358Z,10.77
2022-10-12T20:58:48.761Z,10.95
2022-10-12T21:01:16.768Z,11.52
2022-10-12T21:03:43.357Z,11.35
2022-10-12T21:06:12.306Z,12.05
2022-10-12T21:08:39.605Z,11.50
2022-10-12T21:11:06.707Z,11.35
2022-10-12T21:13:34.720Z,11.20
2022-10-12T21:16:01.615Z,10.40
2022-10-12T21:18:28.123Z,11.20
2022-10-12T21:21:06.541Z,11.00
2022-10-12T21:23:32.924Z,11.32
2022-10-12T21:25:59.302Z,11.35
2022-10-12T21:28:25.737Z,10.73
2022-10-12T21:30:52.192Z,11.50
2022-10-12T21:33:18.666Z,11.27
2022-10-12T21:35:45.380Z,11.48
2022-10-12T21:38:11.795Z,11.23
2022-10-12T21:40:38.215Z,10.88
2022-10-12T21:43:04.648Z,11.40
2022-10-12T21:45:31.026Z,10.90
2022-10-12T21:47:58.370Z,10.70
2022-10-12T21:50:24.842Z,11.80
2022-10-12T21:52:51.233Z,11.18
2022-10-12T21:55:17.656Z,11.35
2022-10-12T21:57:44.614Z,11.40
2022-10-12T22:00:11.857Z,11.60
2022-10-12T22:02:38.296Z,11.02
2022-10-12T22:05:05.078Z,11.30
2022-10-12T22:07:31.468Z,12.27
2022-10-12T22:09:57.813Z,11.40
2022-10-12T22:12:24.180Z,11.35
2022-10-12T22:14:50.637Z,12.13
2022-10-12T22:17:16.994Z,12.43
2022-10-12T22:19:43.473Z,12.10
2022-10-12T22:22:09.842Z,11.10
2022-10-12T22:24:36.229Z,11.30
2022-10-12T22:27:02.631Z,11.85
2022-10-12T22:29:29.068Z,11.30
2022-10-12T22:31:55.454Z,12.15
2022-10-12T22:34:21.837Z,12.30
2022-10-12T22:36:48.223Z,12.02
2022-10-12T22:39:14.573Z,12.32
2022-10-12T22:41:40.937Z,12.25
2022-10-12T22:44:07.308Z,12.32
2022-10-12T22:46:33.670Z,12.07
2022-10-12T22:49:00.092Z,12.18
2022-10-12T22:51:44.553Z,12.35
2022-10-12T22:54:10.963Z,12.50
2022-10-12T22:56:37.315Z,12.43
2022-10-12T22:59:04.388Z,12.43
2022-10-12T23:01:30.774Z,12.70
2022-10-12T23:03:57.134Z,12.60
2022-10-12T23:06:24.227Z,12.70
2022-10-12T23:08:51.304Z,12.50
2022-10-12T23:11:21.006Z,12.90
2022-10-12T23:13:47.575Z,13.27
2022-10-12T23:16:26.028Z,12.32
2022-10-12T23:18:56.732Z,13.07
2022-10-12T23:21:25.869Z,12.65
2022-10-12T23:23:52.245Z,13.07
2022-10-12T23:26:24.052Z,13.20
2022-10-12T23:28:51.003Z,13.25
2022-10-12T23:31:20.403Z,12.98
2022-10-12T23:33:47.006Z,13.25
2022-10-12T23:36:15.848Z,12.63
2022-10-12T23:38:43.708Z,12.50
2022-10-12T23:41:12.179Z,13.60
2022-10-12T23:43:38.591Z,12.80
2022-10-12T23:46:05.754Z,13.13
2022-10-12T23:48:32.920Z,12.57
2022-10-12T23:50:59.847Z,12.13
2022-10-12T23:53:26.591Z,12.93
2022-10-12T23:55:52.952Z,13.40
2022-10-12T23:58:20.522Z,12.95
